Time;durP1;ratioP1;P1;durP2;ratioP2;P2;SDS_P1;SDS_P2;PMS_P1;PMS_P2;Temp;Humidity;BMP_temperature;BMP_pressure;BME280_temperature;BME280_humidity;BME280_pressure;Samples;Min_cycle;Max_cycle;Signal;HPM_P1;HPM_P2
2023/01/16 00:00:43;;;;;;;26.70;15.80;;;;;;;2.97;83.58;97931.23;89545;1270;26688;-70
2023/01/16 00:03:03;;;;;;;18.90;14.00;;;;;;;2.96;83.54;97932.48;89291;1263;100279;-71
2023/01/16 00:05:05;;;;;;;21.70;14.10;;;;;;;2.95;83.69;97932.32;89432;1270;22497;-71
2023/01/16 00:07:07;;;;;;;18.60;14.60;;;;;;;2.93;83.57;97934.48;89581;1268;22563;-71
2023/01/16 00:09:09;;;;;;;23.80;15.30;;;;;;;2.90;83.46;97934.91;89507;1268;99632;-71
2023/01/16 00:11:11;;;;;;;21.70;15.50;;;;;;;2.87;83.32;97931.38;89594;1263;22611;-71
2023/01/16 00:13:13;;;;;;;21.80;14.00;;;;;;;2.85;83.70;97924.15;89542;1270;22490;-71
2023/01/16 00:15:15;;;;;;;25.50;15.40;;;;;;;2.85;83.45;97925.54;89475;1269;97964;-71
2023/01/16 00:17:17;;;;;;;24.50;17.30;;;;;;;2.85;83.36;97928.66;89518;1267;22558;-70
2023/01/16 00:19:19;;;;;;;25.20;17.40;;;;;;;2.83;83.38;97927.54;89493;1262;22537;-71
2023/01/16 00:21:24;;;;;;;24.60;16.00;;;;;;;2.82;83.50;97927.89;89506;1267;98116;-70
2023/01/16 00:23:26;;;;;;;20.50;16.20;;;;;;;2.82;83.39;97924.77;89645;1270;22652;-71
2023/01/16 00:25:27;;;;;;;23.20;16.20;;;;;;;2.80;83.56;97920.52;89549;1270;25588;-71
2023/01/16 00:27:29;;;;;;;21.50;14.90;;;;;;;2.79;83.37;97917.44;89262;1271;100682;-71
2023/01/16 00:29:31;;;;;;;23.50;16.20;;;;;;;2.76;83.49;97916.85;89531;1263;22530;-71
2023/01/16 00:31:32;;;;;;;23.50;17.00;;;;;;;2.72;83.64;97916.96;89529;1263;24706;-70
2023/01/16 00:33:34;;;;;;;26.30;16.90;;;;;;;2.70;83.50;97914.78;89431;1270;100587;-70
2023/01/16 00:35:36;;;;;;;27.60;17.20;;;;;;;2.68;83.61;97914.50;89531;1270;23099;-70
2023/01/16 00:37:38;;;;;;;24.90;16.70;;;;;;;2.66;83.42;97917.16;89562;1264;22599;-73
2023/01/16 00:39:39;;;;;;;25.80;18.00;;;;;;;2.65;83.48;97917.04;89484;1268;97973;-72
2023/01/16 00:41:41;;;;;;;25.70;17.00;;;;;;;2.65;83.63;97912.20;89683;1269;22503;-71
2023/01/16 00:43:43;;;;;;;26.90;15.70;;;;;;;2.64;83.85;97911.52;89676;1270;26589;-71
2023/01/16 00:45:45;;;;;;;21.90;15.60;;;;;;;2.61;83.68;97908.84;89629;1269;98005;-71
2023/01/16 00:47:46;;;;;;;25.10;16.20;;;;;;;2.58;83.66;97911.22;89562;1264;22538;-71
2023/01/16 00:49:48;;;;;;;37.70;17.10;;;;;;;2.57;83.72;97911.23;89630;1270;22511;-71
2023/01/16 00:51:49;;;;;;;20.80;15.50;;;;;;;2.55;83.47;97906.95;89623;1269;98163;-71
2023/01/16 00:53:51;;;;;;;20.50;15.60;;;;;;;2.54;83.56;97908.20;89608;1268;22601;-72
2023/01/16 00:55:52;;;;;;;22.50;15.50;;;;;;;2.53;83.64;97910.48;89699;1264;22640;-71
2023/01/16 00:57:54;;;;;;;22.00;15.20;;;;;;;2.52;83.70;97913.10;89589;1270;99112;-71
2023/01/16 00:59:56;;;;;;;24.40;15.90;;;;;;;2.50;83.53;97913.38;89613;1269;24273;-70
2023/01/16 01:01:57;;;;;;;20.40;13.20;;;;;;;2.46;83.75;97915.74;89563;1270;25334;-70
2023/01/16 01:03:59;;;;;;;24.60;14.90;;;;;;;2.42;83.58;97913.09;89565;1254;100508;-71
2023/01/16 01:06:06;;;;;;;19.20;14.10;;;;;;;2.37;83.47;97913.08;89633;1257;24222;-71
2023/01/16 01:08:08;;;;;;;20.90;14.30;;;;;;;2.31;83.59;97914.14;89360;1270;242943;-72
2023/01/16 01:10:10;;;;;;;22.10;15.10;;;;;;;2.26;83.54;97912.05;89383;1263;99441;-71
2023/01/16 01:12:11;;;;;;;22.10;14.80;;;;;;;2.23;83.44;97911.64;89531;1264;22656;-71
2023/01/16 01:14:13;;;;;;;19.40;14.60;;;;;;;2.20;83.53;97913.10;89493;1262;22576;-72
2023/01/16 01:16:16;;;;;;;24.50;15.10;;;;;;;2.19;83.61;97912.80;89555;1254;98202;-71
2023/01/16 01:18:17;;;;;;;19.80;14.40;;;;;;;2.17;83.40;97913.00;89581;1261;22630;-71
2023/01/16 01:20:19;;;;;;;20.40;13.60;;;;;;;2.15;83.82;97915.84;89579;1269;24301;-71
2023/01/16 01:22:21;;;;;;;16.40;14.20;;;;;;;2.14;83.45;97910.00;89494;1270;99094;-71
2023/01/16 01:24:23;;;;;;;19.30;12.90;;;;;;;2.11;83.60;97907.66;89644;1267;25961;-71
2023/01/16 01:26:25;;;;;;;17.90;12.60;;;;;;;2.06;83.67;97905.91;89704;1254;22752;-71
2023/01/16 01:28:26;;;;;;;14.70;11.80;;;;;;;2.02;83.67;97906.56;89477;1270;98015;-72
2023/01/16 01:30:28;;;;;;;18.70;11.30;;;;;;;1.99;83.78;97902.34;89594;1266;22586;-71
2023/01/16 01:32:29;;;;;;;13.90;11.30;;;;;;;1.94;83.76;97901.27;89565;1262;23220;-72
2023/01/16 01:34:33;;;;;;;17.30;12.00;;;;;;;1.88;83.49;97896.75;89334;1273;99223;-71
2023/01/16 01:36:35;;;;;;;22.70;13.00;;;;;;;1.85;83.57;97900.48;89795;1262;22563;-71
2023/01/16 01:38:37;;;;;;;13.90;11.50;;;;;;;1.82;83.66;97898.67;89631;1270;24279;-71
2023/01/16 01:40:39;;;;;;;19.20;12.00;;;;;;;1.80;83.36;97896.84;89578;1270;97817;-71
2023/01/16 01:42:45;;;;;;;16.30;11.50;;;;;;;1.79;83.76;97894.28;89721;1269;22600;-71
2023/01/16 01:44:51;;;;;;;16.20;12.40;;;;;;;1.76;83.71;97895.23;89530;1267;23381;-71
2023/01/16 01:46:53;;;;;;;24.80;12.30;;;;;;;1.73;83.76;97895.83;89702;1265;23088;-71
2023/01/16 01:49:07;;;;;;;25.90;14.10;;;;;;;1.70;83.67;97893.48;89657;1262;22682;-71
2023/01/16 01:51:14;;;;;;;23.00;16.40;;;;;;;1.67;83.95;97893.59;89535;1262;99659;-71
2023/01/16 01:53:34;;;;;;;17.80;15.30;;;;;;;1.62;83.42;97889.75;90023;1270;22535;-71
2023/01/16 01:55:38;;;;;;;31.10;18.20;;;;;;;1.58;83.71;97888.82;89722;1269;23734;-71
2023/01/16 01:57:48;;;;;;;32.60;18.20;;;;;;;1.56;83.96;97889.41;89942;1268;99322;-71
2023/01/16 02:00:00;;;;;;;37.40;23.10;;;;;;;1.52;83.56;97894.02;89684;1263;22569;-71
2023/01/16 02:02:06;;;;;;;35.00;20.60;;;;;;;1.49;83.69;97901.36;89677;1270;23018;-71
2023/01/16 02:04:15;;;;;;;29.90;20.40;;;;;;;1.42;83.41;97895.71;89551;1270;99379;-71
2023/01/16 02:06:21;;;;;;;26.90;19.60;;;;;;;1.39;83.71;97899.94;89928;1266;25310;-71
2023/01/16 02:08:28;;;;;;;27.40;20.50;;;;;;;1.36;83.83;97897.79;89613;1270;22542;-71
2023/01/16 02:10:41;;;;;;;30.40;21.90;;;;;;;1.32;83.69;97894.27;89401;1272;97993;-71
2023/01/16 02:12:42;;;;;;;33.60;21.40;;;;;;;1.28;83.85;97893.17;89703;1270;23852;-70
2023/01/16 02:14:47;;;;;;;29.60;21.80;;;;;;;1.24;83.94;97887.20;89511;1271;22660;-72
2023/01/16 02:19:45;;;;;;;34.60;23.60;;;;;;;1.17;83.58;97874.26;89676;1270;23529;-71
2023/01/16 02:22:06;;;;;;;36.80;25.50;;;;;;;1.15;83.65;97874.65;89609;1265;99542;-70
2023/01/16 02:24:21;;;;;;;35.10;26.40;;;;;;;1.12;83.91;97867.65;89790;1268;22586;-70
2023/01/16 02:26:58;;;;;;;34.10;25.10;;;;;;;1.07;83.61;97860.86;89749;1269;22672;-70
2023/01/16 02:29:18;;;;;;;41.40;32.20;;;;;;;1.07;83.67;97861.73;89696;1270;22690;-70
2023/01/16 02:31:34;;;;;;;44.50;32.60;;;;;;;1.09;83.91;97858.58;89668;1263;25894;-70
2023/01/16 02:33:55;;;;;;;44.80;33.70;;;;;;;1.09;83.99;97855.61;89570;1262;98220;-70
2023/01/16 02:36:12;;;;;;;48.00;33.80;;;;;;;1.09;83.99;97849.56;89552;1268;22772;-70
2023/01/16 02:38:31;;;;;;;47.80;33.00;;;;;;;1.10;84.11;97846.42;89491;1271;22544;-70
2023/01/16 02:40:54;;;;;;;48.10;28.10;;;;;;;1.10;84.07;97843.67;89528;1270;98700;-71
2023/01/16 02:43:21;;;;;;;43.80;28.60;;;;;;;1.07;84.00;97844.09;89554;1269;22671;-70
2023/01/16 02:46:04;;;;;;;45.60;32.00;;;;;;;1.05;84.00;97843.09;89534;1269;99300;-71
2023/01/16 02:48:11;;;;;;;44.40;33.30;;;;;;;1.04;84.16;97838.80;90217;1264;24500;-70
2023/01/16 02:50:32;;;;;;;51.40;32.60;;;;;;;1.03;83.96;97835.02;89612;1270;22558;-71
2023/01/16 02:52:58;;;;;;;56.50;33.90;;;;;;;1.04;84.27;97836.38;89377;1270;99148;-71
2023/01/16 02:55:28;;;;;;;46.00;32.40;;;;;;;1.05;84.24;97831.67;89419;1270;22697;-71
2023/01/16 02:57:36;;;;;;;46.70;30.00;;;;;;;1.05;84.04;97833.23;89483;1270;98141;-70
2023/01/16 02:59:41;;;;;;;51.50;29.70;;;;;;;1.04;84.31;97837.77;89573;1270;23119;-71
2023/01/16 03:01:46;;;;;;;38.00;26.50;;;;;;;1.01;84.13;97840.77;89409;1272;22568;-70
2023/01/16 03:04:05;;;;;;;37.90;26.10;;;;;;;0.95;83.96;97842.85;89534;1266;99682;-71
2023/01/16 03:06:53;;;;;;;42.00;25.70;;;;;;;0.89;83.88;97844.75;89465;1272;25613;-71
2023/01/16 03:09:01;;;;;;;43.50;24.70;;;;;;;0.82;84.04;97843.55;89525;1254;22608;-70
2023/01/16 03:11:13;;;;;;;59.50;28.20;;;;;;;0.77;83.82;97843.69;89609;1268;22662;-71
2023/01/16 03:13:21;;;;;;;40.80;26.70;;;;;;;0.73;83.99;97848.30;89549;1264;22853;-70
2023/01/16 03:15:38;;;;;;;78.90;30.30;;;;;;;0.68;83.79;97846.55;89489;1262;98759;-71
2023/01/16 03:17:57;;;;;;;39.80;28.60;;;;;;;0.63;83.85;97844.05;89567;1262;22529;-71
2023/01/16 03:20:11;;;;;;;77.70;29.50;;;;;;;0.58;83.85;97841.42;89426;1270;24653;-71
2023/01/16 03:22:22;;;;;;;37.60;26.10;;;;;;;0.53;83.56;97840.52;89515;1266;99327;-71
2023/01/16 03:24:30;;;;;;;;;;;;;;;0.48;83.68;97837.89;89369;1264;22621;-71
2023/01/16 03:26:41;;;;;;;117.10;35.40;;;;;;;0.44;83.83;97835.74;89586;1266;22815;-71
2023/01/16 03:28:56;;;;;;;112.10;37.40;;;;;;;0.43;83.91;97834.39;89470;1269;98397;-71
2023/01/16 03:31:05;;;;;;;52.30;31.20;;;;;;;0.40;83.81;97833.27;89462;1270;22532;-71
2023/01/16 03:33:31;;;;;;;101.70;46.60;;;;;;;0.37;83.91;97828.14;89542;1262;99648;-71
2023/01/16 03:35:39;;;;;;;118.10;47.00;;;;;;;0.34;83.87;97820.63;89518;1267;23117;-71
2023/01/16 03:37:47;;;;;;;123.30;47.20;;;;;;;0.30;83.84;97820.36;89392;1267;23318;-71
2023/01/16 03:39:56;;;;;;;96.60;45.20;;;;;;;0.26;83.94;97818.58;90346;1261;98544;-74
2023/01/16 03:42:03;;;;;;;81.60;40.40;;;;;;;0.23;83.88;97819.52;89801;1270;23961;-71
2023/01/16 03:44:15;;;;;;;76.20;40.60;;;;;;;0.20;84.09;97823.21;89678;1266;22600;-71
2023/01/16 03:46:20;;;;;;;69.60;37.20;;;;;;;0.16;83.89;97827.45;89262;1270;98559;-71
2023/01/16 03:48:36;;;;;;;67.00;35.30;;;;;;;0.10;83.83;97829.34;89423;1267;22639;-71
2023/01/16 03:50:42;;;;;;;58.40;35.80;;;;;;;0.03;83.97;97838.30;89576;1271;22705;-71
2023/01/16 03:52:50;;;;;;;66.50;37.10;;;;;;;0.03;83.87;97843.85;89379;1270;99273;-71
2023/01/16 03:55:19;;;;;;;59.30;36.00;;;;;;;0.02;83.89;97846.46;89540;1262;25437;-71
2023/01/16 03:57:25;;;;;;;59.20;37.20;;;;;;;-0.03;83.83;97848.48;89392;1264;99243;-71
2023/01/16 03:59:27;;;;;;;67.70;37.90;;;;;;;-0.05;84.05;97852.14;89596;1268;22540;-71
2023/01/16 04:01:37;;;;;;;62.70;40.20;;;;;;;-0.05;84.13;97852.50;89351;1269;22581;-70
2023/01/16 04:03:54;;;;;;;75.40;39.60;;;;;;;-0.08;83.97;97848.94;90025;1269;99105;-71
2023/01/16 04:05:59;;;;;;;66.10;37.90;;;;;;;-0.10;83.99;97844.48;89513;1270;22617;-71
2023/01/16 04:08:09;;;;;;;77.90;42.90;;;;;;;-0.14;83.87;97838.20;89586;1263;22590;-70
2023/01/16 04:10:15;;;;;;;71.30;40.90;;;;;;;-0.17;84.01;97837.23;89743;1271;99448;-70
2023/01/16 04:12:22;;;;;;;93.30;46.20;;;;;;;-0.18;84.02;97830.54;89714;1270;22574;-70
2023/01/16 04:14:25;;;;;;;81.30;47.40;;;;;;;-0.16;84.10;97828.60;89588;1270;22542;-71
2023/01/16 04:16:29;;;;;;;78.90;46.80;;;;;;;-0.15;84.04;97820.45;89414;1270;98388;-71
2023/01/16 04:18:34;;;;;;;79.50;48.20;;;;;;;-0.13;84.27;97817.29;89606;1265;22569;-71
2023/01/16 04:20:36;;;;;;;92.70;48.50;;;;;;;-0.13;84.10;97812.80;89626;1270;22808;-71
2023/01/16 04:22:38;;;;;;;69.60;45.70;;;;;;;-0.12;84.21;97807.09;89427;1268;99401;-70
2023/01/16 04:24:40;;;;;;;87.30;45.30;;;;;;;-0.12;84.18;97805.38;89381;1270;22598;-70
2023/01/16 04:26:42;;;;;;;115.20;48.50;;;;;;;-0.15;84.27;97797.48;89274;1271;22556;-71
2023/01/16 04:28:43;;;;;;;82.80;46.90;;;;;;;-0.15;84.30;97799.38;89275;1271;98367;-71
2023/01/16 04:30:45;;;;;;;112.40;50.30;;;;;;;-0.13;84.63;97800.04;89431;1270;22741;-71
2023/01/16 04:32:46;;;;;;;88.20;46.70;;;;;;;-0.11;84.68;97796.36;89522;1262;22529;-71
2023/01/16 04:34:48;;;;;;;76.80;47.10;;;;;;;-0.09;84.56;97799.75;89485;1258;99569;-71
2023/01/16 04:36:50;;;;;;;67.70;46.90;;;;;;;-0.06;84.60;97806.75;89540;1270;22533;-71
2023/01/16 04:38:51;;;;;;;78.10;44.90;;;;;;;-0.04;84.50;97802.73;89573;1268;22624;-71
2023/01/16 04:40:54;;;;;;;60.60;35.70;;;;;;;-0.04;84.38;97800.48;89422;1271;98108;-72
2023/01/16 04:42:55;;;;;;;49.10;33.80;;;;;;;-0.06;84.36;97801.39;89490;1267;22595;-71
2023/01/16 04:44:57;;;;;;;49.00;31.50;;;;;;;-0.08;84.48;97800.09;89452;1270;25343;-71
2023/01/16 04:46:59;;;;;;;55.80;35.20;;;;;;;-0.09;84.50;97799.06;89475;1269;99242;-72
2023/01/16 04:49:00;;;;;;;64.60;38.80;;;;;;;-0.08;84.37;97801.62;89369;1271;22575;-71
2023/01/16 04:51:02;;;;;;;62.60;39.30;;;;;;;-0.08;84.57;97794.55;89307;1268;98541;-72
2023/01/16 04:53:04;;;;;;;76.80;41.70;;;;;;;-0.07;84.43;97792.27;89371;1271;22929;-72
2023/01/16 04:55:06;;;;;;;60.20;37.40;;;;;;;-0.05;84.54;97790.70;89578;1271;22612;-72
2023/01/16 04:57:08;;;;;;;59.90;35.70;;;;;;;-0.05;84.62;97784.46;89456;1264;98801;-71
2023/01/16 04:59:12;;;;;;;56.80;35.20;;;;;;;-0.03;84.80;97774.90;89558;1270;22553;-71
2023/01/16 05:01:14;;;;;;;58.70;34.10;;;;;;;-0.01;84.79;97773.32;89716;1261;25970;-71
2023/01/16 05:03:15;;;;;;;54.70;35.60;;;;;;;-0.01;84.73;97766.06;89537;1263;98661;-72
2023/01/16 05:05:17;;;;;;;56.10;33.40;;;;;;;0.01;84.68;97764.98;89584;1270;24210;-71
2023/01/16 05:07:19;;;;;;;57.40;33.20;;;;;;;0.04;84.82;97760.74;89528;1264;22532;-71
2023/01/16 05:09:20;;;;;;;51.10;32.40;;;;;;;0.06;84.80;97760.36;89447;1269;98216;-71
2023/01/16 05:11:22;;;;;;;54.20;33.20;;;;;;;0.08;84.85;97760.48;89413;1264;24295;-71
2023/01/16 05:13:24;;;;;;;55.10;35.20;;;;;;;0.09;84.92;97759.57;89438;1267;22590;-71
2023/01/16 05:15:26;;;;;;;49.20;33.60;;;;;;;0.12;84.79;97753.27;89510;1270;99618;-71
2023/01/16 05:17:27;;;;;;;48.50;31.50;;;;;;;0.14;84.96;97753.06;89467;1271;25397;-72
2023/01/16 05:19:29;;;;;;;55.30;31.70;;;;;;;0.17;85.06;97752.48;89566;1270;22659;-71
2023/01/16 05:21:31;;;;;;;47.90;31.20;;;;;;;0.21;84.86;97740.98;89563;1269;98350;-71
2023/01/16 05:23:34;;;;;;;59.60;34.10;;;;;;;0.25;85.22;97737.42;89599;1265;22619;-73
2023/01/16 05:25:37;;;;;;;41.40;28.30;;;;;;;0.28;85.15;97733.04;89446;1273;22692;-71
2023/01/16 05:27:39;;;;;;;49.50;32.50;;;;;;;0.27;84.93;97733.90;89607;1267;98191;-71
2023/01/16 05:29:40;;;;;;;56.90;33.60;;;;;;;0.25;84.90;97735.16;89635;1269;22770;-71
2023/01/16 05:31:42;;;;;;;45.80;31.40;;;;;;;0.26;84.83;97730.65;89538;1269;24212;-71
2023/01/16 05:33:44;;;;;;;46.00;31.00;;;;;;;0.26;84.84;97731.34;89517;1271;99144;-71
2023/01/16 05:35:47;;;;;;;57.70;36.00;;;;;;;0.26;84.87;97733.40;89730;1270;24220;-71
2023/01/16 05:37:49;;;;;;;51.60;36.00;;;;;;;0.27;84.81;97726.46;89666;1262;22579;-72
2023/01/16 05:39:50;;;;;;;56.30;35.80;;;;;;;0.29;84.73;97724.70;89302;1271;99233;-71
2023/01/16 05:41:52;;;;;;;56.20;35.70;;;;;;;0.32;84.87;97720.82;89615;1269;22612;-72
2023/01/16 05:43:53;;;;;;;52.40;34.20;;;;;;;0.34;84.83;97717.48;89649;1267;22547;-70
2023/01/16 05:45:55;;;;;;;56.30;34.10;;;;;;;0.34;84.97;97713.67;89340;1269;98899;-71
2023/01/16 05:47:57;;;;;;;68.70;40.60;;;;;;;0.34;84.92;97709.52;89403;1270;26291;-71
2023/01/16 05:49:59;;;;;;;77.20;41.30;;;;;;;0.36;84.90;97711.04;89395;1271;22561;-71
2023/01/16 05:52:01;;;;;;;81.80;45.70;;;;;;;0.37;85.08;97704.80;89312;1265;98277;-69
2023/01/16 05:54:03;;;;;;;82.20;47.30;;;;;;;0.39;84.90;97703.52;89327;1263;24249;-70
2023/01/16 05:56:09;;;;;;;83.90;47.20;;;;;;;0.40;85.19;97703.84;89492;1270;22698;-70
2023/01/16 05:58:13;;;;;;;84.10;46.70;;;;;;;0.42;85.14;97704.80;89407;1270;98025;-71
2023/01/16 06:00:15;;;;;;;83.40;45.90;;;;;;;0.44;85.05;97704.57;89835;1268;22676;-70
2023/01/16 06:02:19;;;;;;;78.00;43.30;;;;;;;0.44;84.95;97704.05;89495;1269;22572;-71
2023/01/16 06:04:20;;;;;;;70.70;41.90;;;;;;;0.44;85.02;97701.45;89411;1264;98481;-70
2023/01/16 06:06:22;;;;;;;79.10;42.40;;;;;;;0.43;84.98;97696.80;89581;1262;22651;-70
2023/01/16 06:08:25;;;;;;;72.00;41.90;;;;;;;0.44;85.12;97694.04;89489;1270;22549;-70
2023/01/16 06:10:27;;;;;;;73.50;40.60;;;;;;;0.44;84.82;97695.59;89436;1268;98328;-70
2023/01/16 06:12:31;;;;;;;71.80;40.30;;;;;;;0.43;84.75;97697.38;89747;1264;22647;-71
2023/01/16 06:14:34;;;;;;;72.10;40.00;;;;;;;0.42;84.94;97696.00;89671;1271;22526;-70
2023/01/16 06:16:36;;;;;;;68.50;40.10;;;;;;;0.40;84.82;97689.83;89444;1262;98004;-70
2023/01/16 06:18:37;;;;;;;76.30;46.00;;;;;;;0.40;84.76;97691.22;89435;1262;25436;-70
2023/01/16 06:20:39;;;;;;;82.20;47.40;;;;;;;0.39;84.71;97694.19;89304;1273;22662;-70
2023/01/16 06:22:41;;;;;;;89.40;53.80;;;;;;;0.38;85.02;97689.20;89348;1267;100730;-70
2023/01/16 06:24:43;;;;;;;82.60;49.70;;;;;;;0.39;84.94;97687.96;89500;1268;25474;-71
2023/01/16 06:26:44;;;;;;;90.60;50.90;;;;;;;0.42;85.03;97682.02;89481;1270;22534;-71
2023/01/16 06:28:46;;;;;;;81.20;45.90;;;;;;;0.43;84.90;97680.07;89507;1270;99191;-71
2023/01/16 06:30:52;;;;;;;66.00;42.50;;;;;;;0.43;85.01;97678.52;89646;1269;22586;-71
2023/01/16 06:32:54;;;;;;;71.50;43.10;;;;;;;0.43;85.00;97679.57;89614;1264;22747;-72
2023/01/16 06:34:57;;;;;;;52.60;35.10;;;;;;;0.41;85.07;97677.37;88857;1272;97910;-73
2023/01/16 06:36:58;;;;;;;63.30;39.10;;;;;;;0.43;85.09;97681.45;88982;1260;22527;-71
2023/01/16 06:39:01;;;;;;;53.50;36.30;;;;;;;0.42;85.02;97676.98;89021;1265;99437;-72
2023/01/16 06:41:03;;;;;;;48.40;34.30;;;;;;;0.41;84.88;97685.31;89173;1268;25381;-73
2023/01/16 06:43:05;;;;;;;59.70;39.10;;;;;;;0.38;84.76;97688.16;88936;1262;24404;-73
2023/01/16 06:45:07;;;;;;;74.30;45.70;;;;;;;0.37;84.76;97688.20;88934;1262;99481;-73
2023/01/16 06:47:09;;;;;;;88.10;55.70;;;;;;;0.35;84.96;97684.27;89124;1269;22975;-71
2023/01/16 06:49:11;;;;;;;100.70;59.20;;;;;;;0.36;85.07;97687.20;89414;1266;22653;-74
2023/01/16 06:51:13;;;;;;;119.10;69.30;;;;;;;0.37;85.01;97685.61;89069;1270;99523;-72
2023/01/16 06:53:14;;;;;;;130.40;76.00;;;;;;;0.39;85.11;97685.21;89063;1269;22537;-72
2023/01/16 06:55:16;;;;;;;141.30;78.10;;;;;;;0.39;85.20;97680.52;89021;1255;22601;-72
2023/01/16 06:57:18;;;;;;;144.50;81.50;;;;;;;0.39;84.98;97684.68;89039;1268;99564;-71
2023/01/16 06:59:20;;;;;;;142.40;81.70;;;;;;;0.40;84.96;97676.89;88932;1269;25515;-71
2023/01/16 07:01:21;;;;;;;132.00;75.80;;;;;;;0.42;85.15;97672.68;88902;1264;24482;-71
2023/01/16 07:03:24;;;;;;;139.60;81.90;;;;;;;0.45;85.14;97671.55;88969;1271;99725;-72
2023/01/16 07:05:28;;;;;;;135.10;78.80;;;;;;;0.47;85.27;97667.17;88880;1271;22608;-72
2023/01/16 07:07:29;;;;;;;106.10;66.60;;;;;;;0.49;85.31;97664.70;88891;1254;24244;-72
2023/01/16 07:09:32;;;;;;;89.30;56.70;;;;;;;0.51;85.24;97668.96;88732;1271;99372;-72
2023/01/16 07:11:34;;;;;;;96.90;61.10;;;;;;;0.52;85.27;97671.35;88871;1271;25444;-71
2023/01/16 07:13:36;;;;;;;101.40;69.00;;;;;;;0.54;85.35;97671.28;89008;1270;25489;-72
2023/01/16 07:22:39;;;;;;;83.80;54.10;;;;;;;0.62;85.37;97664.33;89002;1269;99933;-72
2023/01/16 07:24:40;;;;;;;80.00;53.00;;;;;;;0.63;85.47;97666.73;88911;1259;24325;-72
2023/01/16 07:26:44;;;;;;;90.60;56.10;;;;;;;0.64;85.30;97666.88;89002;1271;25504;-72
2023/01/16 07:28:49;;;;;;;99.10;63.20;;;;;;;0.66;85.11;97664.90;88894;1271;99339;-71
2023/01/16 07:30:50;;;;;;;116.40;71.70;;;;;;;0.66;85.11;97662.83;88957;1263;26327;-73
2023/01/16 07:32:52;;;;;;;111.50;68.30;;;;;;;0.66;85.31;97661.95;88984;1271;23009;-72
2023/01/16 07:34:54;;;;;;;106.50;62.90;;;;;;;0.66;85.60;97659.70;89051;1265;99088;-71
2023/01/16 07:36:56;;;;;;;100.70;63.80;;;;;;;0.67;85.11;97661.58;88894;1271;22618;-71
2023/01/16 07:38:58;;;;;;;95.30;60.70;;;;;;;0.69;85.36;97660.98;89121;1264;24244;-71
2023/01/16 07:41:00;;;;;;;104.30;59.80;;;;;;;0.73;85.46;97659.86;89081;1264;99015;-71
2023/01/16 07:43:02;;;;;;;100.20;64.30;;;;;;;0.76;85.35;97656.31;89237;1268;27611;-71
2023/01/16 07:45:04;;;;;;;84.20;52.00;;;;;;;0.79;85.32;97655.70;89130;1269;99968;-71
2023/01/16 07:47:06;;;;;;;94.10;58.20;;;;;;;0.82;85.76;97655.24;89044;1264;22485;-71
2023/01/16 07:49:07;;;;;;;104.40;67.50;;;;;;;0.85;85.46;97651.19;89017;1271;25301;-71
2023/01/16 07:51:10;;;;;;;102.90;60.30;;;;;;;0.89;85.55;97648.31;88993;1271;99448;-70
2023/01/16 07:53:12;;;;;;;97.40;59.20;;;;;;;0.92;85.46;97650.14;89071;1270;23822;-72
2023/01/16 07:55:15;;;;;;;89.10;57.20;;;;;;;0.94;85.63;97650.75;89026;1271;31679;-71
2023/01/16 07:57:16;;;;;;;102.10;57.90;;;;;;;0.96;85.64;97650.52;89326;1266;100692;-71
2023/01/16 07:59:18;;;;;;;91.30;56.40;;;;;;;0.96;85.77;97650.52;89078;1271;23800;-70
2023/01/16 08:01:20;;;;;;;97.00;54.40;;;;;;;0.96;85.54;97644.81;89051;1270;23407;-71
2023/01/16 08:03:22;;;;;;;89.70;53.80;;;;;;;0.98;85.43;97642.14;89064;1270;98139;-71
2023/01/16 08:05:24;;;;;;;92.60;50.20;;;;;;;1.01;85.50;97643.07;89245;1269;24252;-72
2023/01/16 08:07:26;;;;;;;74.20;49.00;;;;;;;1.04;85.66;97637.99;89221;1271;22641;-71
2023/01/16 08:09:27;;;;;;;79.90;51.60;;;;;;;1.07;85.70;97635.29;89110;1270;98043;-71
2023/01/16 08:11:35;;;;;;;77.80;47.60;;;;;;;1.09;85.72;97631.08;89281;1267;22539;-71
2023/01/16 08:13:40;;;;;;;73.40;47.60;;;;;;;1.11;85.59;97630.85;89148;1270;22629;-71
2023/01/16 08:15:42;;;;;;;77.10;49.50;;;;;;;1.12;85.79;97621.96;89206;1261;101003;-71
2023/01/16 08:17:43;;;;;;;113.10;49.90;;;;;;;1.17;85.83;97616.80;89250;1269;22828;-71
2023/01/16 08:19:45;;;;;;;223.80;55.00;;;;;;;1.21;85.81;97614.45;89127;1271;23435;-72
2023/01/16 08:21:47;;;;;;;234.60;53.00;;;;;;;1.21;85.80;97612.54;89068;1259;99416;-73
2023/01/16 08:23:49;;;;;;;147.10;44.60;;;;;;;1.26;85.50;97613.08;89235;1264;22605;-73
2023/01/16 08:25:52;;;;;;;127.10;48.20;;;;;;;1.25;85.59;97600.30;89415;1270;25731;-72
2023/01/16 08:27:53;;;;;;;362.30;63.10;;;;;;;1.32;85.80;97598.52;89173;1270;99569;-72
2023/01/16 08:29:55;;;;;;;466.50;86.90;;;;;;;1.34;85.77;97598.27;89263;1270;24059;-72
2023/01/16 08:31:57;;;;;;;317.00;82.60;;;;;;;1.36;85.75;97591.98;89075;1266;22549;-71
2023/01/16 08:33:58;;;;;;;266.10;83.80;;;;;;;1.36;85.67;97585.39;88976;1267;99413;-72
2023/01/16 08:36:00;;;;;;;169.00;83.30;;;;;;;1.36;85.84;97582.29;89173;1254;24265;-71
2023/01/16 08:38:01;;;;;;;136.70;76.50;;;;;;;1.36;85.87;97581.09;89050;1270;22531;-71
2023/01/16 08:40:04;;;;;;;142.00;78.10;;;;;;;1.34;85.70;97577.66;89055;1263;98160;-72
2023/01/16 08:51:41;;;;;;;77.10;43.30;;;;;;;1.34;85.82;97561.05;89116;1270;84061;-73
2023/01/16 08:53:43;;;;;;;149.90;47.20;;;;;;;1.37;85.74;97557.66;89147;1267;25311;-73
2023/01/16 08:55:44;;;;;;;232.30;50.50;;;;;;;1.40;85.87;97553.75;89203;1268;22897;-72
2023/01/16 08:57:46;;;;;;;305.70;55.70;;;;;;;1.42;86.02;97553.68;88925;1271;100372;-71
2023/01/16 08:59:48;;;;;;;190.10;47.40;;;;;;;1.44;85.86;97550.36;89153;1262;24368;-72
2023/01/16 09:01:49;;;;;;;134.60;43.90;;;;;;;1.45;85.73;97552.19;89229;1267;23394;-71
2023/01/16 09:03:51;;;;;;;83.80;40.30;;;;;;;1.46;85.99;97554.23;89105;1269;100705;-72
2023/01/16 09:05:53;;;;;;;66.60;40.40;;;;;;;1.48;85.99;97549.48;89168;1268;25317;-71
2023/01/16 09:07:54;;;;;;;76.30;40.30;;;;;;;1.51;85.84;97538.66;89167;1269;22523;-72
2023/01/16 09:09:56;;;;;;;82.00;40.50;;;;;;;1.54;85.92;97530.27;88989;1270;99401;-72
2023/01/16 09:14:19;;;;;;;76.70;42.90;;;;;;;1.57;85.77;97530.85;89215;1261;24051;-72
2023/01/16 09:16:24;;;;;;;86.60;46.10;;;;;;;1.58;85.97;97527.17;89054;1268;100378;-72
2023/01/16 09:18:25;;;;;;;106.50;56.20;;;;;;;1.62;85.88;97522.91;89025;1271;22551;-72
2023/01/16 09:20:27;;;;;;;254.10;67.00;;;;;;;1.65;85.71;97518.30;89046;1269;23300;-72
2023/01/16 09:22:29;;;;;;;374.60;79.80;;;;;;;1.67;86.00;97508.67;89029;1270;99318;-71
2023/01/16 09:24:31;;;;;;;263.20;71.50;;;;;;;1.68;85.98;97503.95;89232;1270;24251;-71
2023/01/16 09:26:32;;;;;;;141.20;65.40;;;;;;;1.71;85.64;97500.55;89470;1268;24328;-72
2023/01/16 09:28:34;;;;;;;125.30;62.70;;;;;;;1.73;85.56;97493.05;89214;1266;98523;-71
2023/01/16 09:30:36;;;;;;;124.30;72.30;;;;;;;1.75;85.96;97491.95;89294;1266;22571;-72
2023/01/16 09:32:37;;;;;;;93.60;62.10;;;;;;;1.78;86.08;97490.80;89236;1269;22675;-72
2023/01/16 09:34:41;;;;;;;103.70;59.30;;;;;;;1.80;85.82;97485.52;89056;1270;99324;-72
2023/01/16 09:36:42;;;;;;;317.40;72.60;;;;;;;1.81;85.71;97483.77;89208;1271;22660;-73
2023/01/16 09:38:44;;;;;;;399.50;80.40;;;;;;;1.81;85.76;97483.56;89234;1270;22615;-72
2023/01/16 09:40:50;;;;;;;373.10;71.80;;;;;;;1.82;85.85;97479.20;89195;1265;99781;-72
2023/01/16 09:45:26;;;;;;;191.30;62.30;;;;;;;1.84;85.78;97458.50;89094;1270;100391;-72
2023/01/16 09:47:29;;;;;;;105.80;50.30;;;;;;;1.86;86.21;97447.70;89370;1262;22522;-72
2023/01/16 09:49:45;;;;;;;97.60;50.90;;;;;;;1.89;86.18;97442.77;89263;1269;22567;-72
2023/01/16 09:59:27;;;;;;;79.30;46.10;;;;;;;2.03;86.02;97421.61;89275;1267;23346;-72
2023/01/16 10:01:42;;;;;;;78.70;45.80;;;;;;;2.07;85.96;97416.45;90273;1260;24796;-72
2023/01/16 10:03:44;;;;;;;64.30;38.90;;;;;;;2.11;86.28;97404.15;89773;1268;97986;-72
2023/01/16 10:06:00;;;;;;;64.40;36.50;;;;;;;2.15;86.37;97397.59;89134;1270;23410;-72
2023/01/16 10:08:18;;;;;;;62.80;35.80;;;;;;;2.20;86.32;97397.89;89183;1267;22567;-72
2023/01/16 10:10:38;;;;;;;53.20;34.10;;;;;;;2.26;86.22;97391.61;89276;1270;98031;-71